createdAt,value
2017-08-02T00:01:51.136Z,22.17
2017-08-02T00:04:18.543Z,22.31
2017-08-02T00:06:45.935Z,22.10
2017-08-02T00:09:13.538Z,21.92
2017-08-02T00:11:40.934Z,21.96
2017-08-02T00:14:08.326Z,21.95
2017-08-02T00:16:35.746Z,22.02
2017-08-02T00:19:03.131Z,22.02
2017-08-02T00:21:30.534Z,21.90
2017-08-02T00:23:57.932Z,21.73
2017-08-02T00:26:25.340Z,21.79
2017-08-02T00:28:52.725Z,21.74
2017-08-02T00:31:20.148Z,21.70
2017-08-02T00:33:47.553Z,21.79
2017-08-02T00:36:14.956Z,21.72
2017-08-02T00:38:42.363Z,21.65
2017-08-02T00:41:09.783Z,21.69
2017-08-02T00:43:37.175Z,21.51
2017-08-02T00:46:04.564Z,21.59
2017-08-02T00:48:31.960Z,21.55
2017-08-02T00:50:59.353Z,21.40
2017-08-02T00:53:26.757Z,21.40
2017-08-02T00:55:54.359Z,21.37
2017-08-02T00:58:21.776Z,21.32
2017-08-02T01:00:49.162Z,21.30
2017-08-02T01:03:16.580Z,21.26
2017-08-02T01:05:43.972Z,21.41
2017-08-02T01:08:11.375Z,21.43
2017-08-02T01:10:38.805Z,21.32
2017-08-02T01:13:06.194Z,21.37
2017-08-02T01:15:33.593Z,21.35
2017-08-02T01:18:00.999Z,21.37
2017-08-02T01:20:28.422Z,21.37
2017-08-02T01:22:55.827Z,21.27
2017-08-02T01:25:23.436Z,21.20
2017-08-02T01:27:50.842Z,21.19
2017-08-02T01:30:18.235Z,21.14
2017-08-02T01:32:45.638Z,21.10
2017-08-02T01:35:13.035Z,21.16
2017-08-02T01:37:40.439Z,21.13
2017-08-02T01:40:07.831Z,21.14
2017-08-02T01:42:35.254Z,21.05
2017-08-02T01:45:02.660Z,20.99
2017-08-02T01:47:30.061Z,21.13
2017-08-02T01:49:57.458Z,21.15
2017-08-02T01:52:24.863Z,21.09
2017-08-02T01:54:52.263Z,20.92
2017-08-02T01:57:19.663Z,21.04
2017-08-02T01:59:47.103Z,20.80
2017-08-02T02:02:14.483Z,20.73
2017-08-02T02:04:41.892Z,20.69
2017-08-02T02:07:09.282Z,20.53
2017-08-02T02:09:36.678Z,20.52
2017-08-02T02:12:04.060Z,20.42
2017-08-02T02:14:31.449Z,20.38
2017-08-02T02:16:58.835Z,20.41
2017-08-02T02:19:26.229Z,20.32
2017-08-02T02:21:53.614Z,20.31
2017-08-02T02:24:21.014Z,20.41
2017-08-02T02:26:48.411Z,20.52
2017-08-02T02:29:15.808Z,20.51
2017-08-02T02:31:43.199Z,20.48
2017-08-02T02:34:10.583Z,20.36
2017-08-02T02:36:37.983Z,20.38
2017-08-02T02:39:05.369Z,20.40
2017-08-02T02:41:32.774Z,20.50
2017-08-02T02:44:00.179Z,20.32
2017-08-02T02:46:27.575Z,20.38
2017-08-02T02:48:54.964Z,20.32
2017-08-02T02:51:22.364Z,20.35
2017-08-02T02:53:49.759Z,20.27
2017-08-02T02:56:17.155Z,20.31
2017-08-02T02:58:44.538Z,20.20
2017-08-02T03:01:11.943Z,20.16
2017-08-02T03:03:39.331Z,20.12
2017-08-02T03:06:06.726Z,20.07
2017-08-02T03:08:34.131Z,20.02
2017-08-02T03:11:01.536Z,19.72
2017-08-02T03:13:28.926Z,19.75
2017-08-02T03:15:56.323Z,19.75
2017-08-02T03:18:23.727Z,19.59
2017-08-02T03:20:51.135Z,19.46
2017-08-02T03:23:18.526Z,19.49
2017-08-02T03:25:45.936Z,19.50
2017-08-02T03:28:13.340Z,19.57
2017-08-02T03:30:40.744Z,19.65
2017-08-02T03:33:08.128Z,19.66
2017-08-02T03:35:35.743Z,19.75
2017-08-02T03:38:03.136Z,19.79
2017-08-02T03:40:30.755Z,19.88
2017-08-02T03:42:58.147Z,19.87
2017-08-02T03:45:25.551Z,19.93
2017-08-02T03:47:52.944Z,19.98
2017-08-02T03:50:20.351Z,19.99
2017-08-02T03:52:47.730Z,20.04
2017-08-02T03:55:15.131Z,19.91
2017-08-02T03:57:42.518Z,19.83
2017-08-02T04:00:10.010Z,19.77
2017-08-02T04:02:37.425Z,19.78
2017-08-02T04:05:04.858Z,19.76
2017-08-02T04:07:32.316Z,19.85
2017-08-02T04:09:59.718Z,19.82
2017-08-02T04:12:27.122Z,19.85
2017-08-02T04:14:54.531Z,19.84
2017-08-02T04:17:21.928Z,19.84
2017-08-02T04:19:49.340Z,19.91
2017-08-02T04:22:16.768Z,19.92
2017-08-02T04:24:44.171Z,19.95
2017-08-02T04:27:11.563Z,20.00
2017-08-02T04:29:39.007Z,20.01
2017-08-02T04:32:06.578Z,20.02
2017-08-02T04:34:34.026Z,19.93
2017-08-02T04:37:01.432Z,19.88
2017-08-02T04:39:28.835Z,19.93
2017-08-02T04:41:56.443Z,19.98
2017-08-02T04:44:23.872Z,20.02
2017-08-02T04:46:51.267Z,20.01
2017-08-02T04:49:18.662Z,19.86
2017-08-02T04:51:46.067Z,19.84
2017-08-02T04:54:13.470Z,19.68
2017-08-02T04:56:40.862Z,19.42
2017-08-02T04:59:08.251Z,19.30
2017-08-02T05:01:35.662Z,19.12
2017-08-02T05:04:03.275Z,18.97
2017-08-02T05:06:30.677Z,18.95
2017-08-02T05:08:58.085Z,18.91
2017-08-02T05:11:25.491Z,19.05
2017-08-02T05:13:52.890Z,19.01
2017-08-02T05:16:20.295Z,19.15
2017-08-02T05:18:47.692Z,19.27
2017-08-02T05:21:15.094Z,19.40
2017-08-02T05:23:42.490Z,19.54
2017-08-02T05:26:09.962Z,19.62
2017-08-02T05:28:37.356Z,19.75
2017-08-02T05:31:04.759Z,19.80
2017-08-02T05:33:32.167Z,19.70
2017-08-02T05:35:59.571Z,19.57
2017-08-02T05:38:26.972Z,19.47
2017-08-02T05:40:54.671Z,19.41
2017-08-02T05:43:22.069Z,19.34
2017-08-02T05:45:49.494Z,19.42
2017-08-02T05:48:16.883Z,19.27
2017-08-02T05:50:44.290Z,19.19
2017-08-02T05:53:11.690Z,19.19
2017-08-02T05:55:39.127Z,19.26
2017-08-02T05:58:06.531Z,19.24
2017-08-02T06:00:34.014Z,19.27
2017-08-02T06:03:01.431Z,19.35
2017-08-02T06:05:28.838Z,19.30
2017-08-02T06:07:56.303Z,19.43
2017-08-02T06:10:23.939Z,19.46
2017-08-02T06:12:51.347Z,19.60
2017-08-02T06:15:18.769Z,19.61
2017-08-02T06:17:46.171Z,19.51
2017-08-02T06:20:13.576Z,19.51
2017-08-02T06:22:40.981Z,19.53
2017-08-02T06:25:08.678Z,19.55
2017-08-02T06:27:36.083Z,19.52
2017-08-02T06:30:03.503Z,19.36
2017-08-02T06:32:30.908Z,19.42
2017-08-02T06:34:58.307Z,19.46
2017-08-02T06:37:26.739Z,19.57
2017-08-02T06:39:57.594Z,19.69
2017-08-02T06:42:24.987Z,19.84
2017-08-02T06:44:52.378Z,20.02
2017-08-02T06:47:19.803Z,20.18
2017-08-02T06:49:47.182Z,20.06
2017-08-02T06:52:14.599Z,20.15
2017-08-02T06:54:41.986Z,20.30
2017-08-02T06:57:09.695Z,20.41
2017-08-02T06:59:37.091Z,20.40
2017-08-02T07:02:04.510Z,20.59
2017-08-02T07:04:31.911Z,20.77
2017-08-02T07:06:59.303Z,20.78
2017-08-02T07:09:26.707Z,20.89
2017-08-02T07:11:54.109Z,21.05
2017-08-02T07:14:21.515Z,21.16
2017-08-02T07:16:48.914Z,21.25
2017-08-02T07:19:16.326Z,21.34
2017-08-02T07:21:43.721Z,21.41
2017-08-02T07:24:11.122Z,21.48
2017-08-02T07:26:38.507Z,21.49
2017-08-02T07:29:06.144Z,21.57
2017-08-02T07:31:33.535Z,21.42
2017-08-02T07:34:00.957Z,21.52
2017-08-02T07:36:28.346Z,21.53
2017-08-02T07:38:56.062Z,21.57
2017-08-02T07:41:23.459Z,21.61
2017-08-02T07:43:50.855Z,21.77
2017-08-02T07:46:18.255Z,21.79
2017-08-02T07:48:45.663Z,21.79
2017-08-02T07:51:13.054Z,21.91
2017-08-02T07:53:40.438Z,22.04
2017-08-02T07:56:07.850Z,22.03
2017-08-02T07:58:35.246Z,22.10
2017-08-02T08:01:02.650Z,22.21
2017-08-02T08:03:30.037Z,22.20
2017-08-02T08:05:57.439Z,22.31
2017-08-02T08:08:24.847Z,22.27
2017-08-02T08:10:52.262Z,22.24
2017-08-02T08:13:19.655Z,22.36
2017-08-02T08:15:47.295Z,22.47
2017-08-02T08:18:14.695Z,22.51
2017-08-02T08:20:42.095Z,22.57
2017-08-02T08:23:09.483Z,22.68
2017-08-02T08:25:36.884Z,22.60
2017-08-02T08:28:04.279Z,22.66
2017-08-02T08:30:31.694Z,22.56
2017-08-02T08:32:59.388Z,22.63
2017-08-02T08:35:26.785Z,22.60
2017-08-02T08:37:54.187Z,22.78
2017-08-02T08:40:21.859Z,22.71
2017-08-02T08:42:49.260Z,22.82
2017-08-02T08:45:16.654Z,22.97
2017-08-02T08:47:44.062Z,23.04
2017-08-02T08:50:11.450Z,23.05
2017-08-02T08:52:38.852Z,23.14
2017-08-02T08:55:06.243Z,23.28
2017-08-02T08:57:33.959Z,23.21
2017-08-02T09:00:01.342Z,23.29
2017-08-02T09:02:28.742Z,23.27
2017-08-02T09:04:56.134Z,23.34
2017-08-02T09:07:23.550Z,23.43
2017-08-02T09:09:50.943Z,23.49
2017-08-02T09:12:18.343Z,23.51
2017-08-02T09:14:45.942Z,23.52
2017-08-02T09:17:13.563Z,23.58
2017-08-02T09:19:40.958Z,23.71
2017-08-02T09:22:08.375Z,23.83
2017-08-02T09:24:35.776Z,23.87
2017-08-02T09:27:03.155Z,23.86
2017-08-02T09:29:30.771Z,23.84
2017-08-02T09:31:58.149Z,23.97
2017-08-02T09:34:25.552Z,24.01
2017-08-02T09:36:52.933Z,24.10
2017-08-02T09:39:20.326Z,24.10
2017-08-02T09:41:47.734Z,24.17
2017-08-02T09:44:15.122Z,24.16
2017-08-02T09:46:42.514Z,24.25
2017-08-02T09:49:09.907Z,24.37
2017-08-02T09:51:37.304Z,24.50
2017-08-02T09:54:04.709Z,24.51
2017-08-02T09:56:32.094Z,24.57
2017-08-02T09:58:59.695Z,24.64
2017-08-02T10:01:27.075Z,24.72
2017-08-02T10:03:54.467Z,24.79
2017-08-02T10:06:21.862Z,24.90
2017-08-02T10:08:49.263Z,25.02
2017-08-02T10:11:16.646Z,25.07
2017-08-02T10:13:44.271Z,25.00
2017-08-02T10:16:11.662Z,24.96
2017-08-02T10:18:39.058Z,25.03
2017-08-02T10:21:06.451Z,25.13
2017-08-02T10:23:33.831Z,25.17
2017-08-02T10:26:01.222Z,25.29
2017-08-02T10:28:28.620Z,25.32
2017-08-02T10:30:56.018Z,25.39
2017-08-02T10:33:23.425Z,25.45
2017-08-02T10:35:50.807Z,25.49
2017-08-02T10:38:18.199Z,25.50
2017-08-02T10:40:45.595Z,25.59
2017-08-02T10:43:12.983Z,25.61
2017-08-02T10:45:40.586Z,25.57
2017-08-02T10:48:08.196Z,25.61
2017-08-02T10:50:35.587Z,25.70
2017-08-02T10:53:02.975Z,25.85
2017-08-02T10:55:30.387Z,25.89
2017-08-02T10:57:57.776Z,25.92
2017-08-02T11:00:25.167Z,25.96
2017-08-02T11:02:52.555Z,25.88
2017-08-02T11:05:19.954Z,26.03
2017-08-02T11:07:47.346Z,26.12
2017-08-02T11:10:14.759Z,26.14
2017-08-02T11:12:42.137Z,26.30
2017-08-02T11:15:09.531Z,26.28
2017-08-02T11:17:36.921Z,26.16
2017-08-02T11:20:04.319Z,26.10
2017-08-02T11:22:31.711Z,26.22
2017-08-02T11:24:59.339Z,26.12
2017-08-02T11:27:26.722Z,26.16
2017-08-02T11:29:54.115Z,26.26
2017-08-02T11:32:21.515Z,26.28
2017-08-02T11:34:49.967Z,26.30
2017-08-02T11:37:17.361Z,26.45
2017-08-02T11:39:44.787Z,26.51
2017-08-02T11:42:12.173Z,26.56
2017-08-02T11:44:39.563Z,26.70
2017-08-02T11:47:06.982Z,26.66
2017-08-02T11:49:34.376Z,26.62
2017-08-02T11:52:01.776Z,26.70
2017-08-02T11:54:29.204Z,26.84
2017-08-02T11:56:56.598Z,26.91
2017-08-02T11:59:23.991Z,27.07
2017-08-02T12:01:51.607Z,27.15
2017-08-02T12:04:19.000Z,27.24
2017-08-02T12:06:46.396Z,27.35
2017-08-02T12:09:13.799Z,27.50
2017-08-02T12:11:41.431Z,27.41
2017-08-02T12:14:08.818Z,27.29
2017-08-02T12:16:36.208Z,27.43
2017-08-02T12:19:03.603Z,27.46
2017-08-02T12:21:30.991Z,27.49
2017-08-02T12:23:58.382Z,27.62
2017-08-02T12:26:25.779Z,27.75
2017-08-02T12:28:53.178Z,27.80
2017-08-02T12:31:20.565Z,27.78
2017-08-02T12:33:47.959Z,27.82
2017-08-02T12:36:15.355Z,27.86
2017-08-02T12:38:42.763Z,27.72
2017-08-02T12:41:10.163Z,27.87
2017-08-02T12:43:37.559Z,28.00
2017-08-02T12:46:05.154Z,28.13
2017-08-02T12:48:32.545Z,28.22
2017-08-02T12:50:59.951Z,28.25
2017-08-02T12:53:27.343Z,27.98
2017-08-02T12:55:54.739Z,28.12
2017-08-02T12:58:22.131Z,28.14
2017-08-02T13:00:49.532Z,28.20
2017-08-02T13:03:16.919Z,28.08
2017-08-02T13:05:44.356Z,28.12
2017-08-02T13:08:11.747Z,28.09
2017-08-02T13:10:39.151Z,28.07
2017-08-02T13:13:06.533Z,28.11
2017-08-02T13:15:33.938Z,28.17
2017-08-02T13:18:01.319Z,28.12
2017-08-02T13:20:28.721Z,28.08
2017-08-02T13:22:56.327Z,27.78
2017-08-02T13:25:23.715Z,27.92
2017-08-02T13:27:51.322Z,27.95
2017-08-02T13:30:18.727Z,27.88
2017-08-02T13:32:46.121Z,27.75
2017-08-02T13:35:13.735Z,27.55
2017-08-02T13:37:41.134Z,27.24
2017-08-02T13:40:08.531Z,26.89
2017-08-02T13:42:35.931Z,26.71
2017-08-02T13:45:03.328Z,26.54
2017-08-02T13:47:30.735Z,26.47
2017-08-02T13:49:58.136Z,26.48
2017-08-02T13:52:25.752Z,26.49
2017-08-02T13:54:53.142Z,26.53
2017-08-02T13:57:20.539Z,26.51
2017-08-02T13:59:47.928Z,26.31
2017-08-02T14:02:15.319Z,26.28
2017-08-02T14:04:42.712Z,26.29
2017-08-02T14:07:10.102Z,26.30
2017-08-02T14:09:37.485Z,26.39
2017-08-02T14:12:04.875Z,26.30
2017-08-02T14:14:32.277Z,26.23
2017-08-02T14:16:59.886Z,26.16
2017-08-02T14:19:27.282Z,26.15
2017-08-02T14:21:54.676Z,26.25
2017-08-02T14:24:22.085Z,26.29
2017-08-02T14:26:49.466Z,26.29
2017-08-02T14:29:16.878Z,26.24
2017-08-02T14:31:44.276Z,26.25
2017-08-02T14:34:11.870Z,26.19
2017-08-02T14:36:39.270Z,26.17
2017-08-02T14:39:06.662Z,26.11
2017-08-02T14:41:34.046Z,26.03
2017-08-02T14:44:01.443Z,26.06
2017-08-02T14:46:28.826Z,26.12
2017-08-02T14:48:56.232Z,26.10
2017-08-02T14:51:23.667Z,26.10
2017-08-02T14:53:51.060Z,26.06
2017-08-02T14:56:18.663Z,26.07
2017-08-02T14:58:46.275Z,26.04
2017-08-02T15:01:13.668Z,26.07
2017-08-02T15:03:41.070Z,26.14
2017-08-02T15:06:08.450Z,26.10
2017-08-02T15:08:35.851Z,26.03
2017-08-02T15:11:03.249Z,26.07
2017-08-02T15:13:30.640Z,26.04
2017-08-02T15:15:58.027Z,26.13
2017-08-02T15:18:25.661Z,26.20
2017-08-02T15:20:53.055Z,26.23
2017-08-02T15:23:20.449Z,26.14
2017-08-02T15:25:47.842Z,25.92
2017-08-02T15:28:15.242Z,25.85
2017-08-02T15:30:42.630Z,25.86
2017-08-02T15:33:10.035Z,25.86
2017-08-02T15:35:37.480Z,25.98
2017-08-02T15:38:05.090Z,25.98
2017-08-02T15:40:32.686Z,25.97
2017-08-02T15:43:00.083Z,25.96
2017-08-02T15:45:27.482Z,25.76
2017-08-02T15:47:54.884Z,25.74
2017-08-02T15:50:22.303Z,25.70
2017-08-02T15:52:49.675Z,25.74
2017-08-02T15:55:17.071Z,25.78
2017-08-02T15:57:44.475Z,25.81
2017-08-02T16:00:11.876Z,25.85
2017-08-02T16:02:39.269Z,25.87
2017-08-02T16:05:06.663Z,25.86
2017-08-02T16:07:34.060Z,25.84
2017-08-02T16:10:01.460Z,25.86
2017-08-02T16:12:28.882Z,25.95
2017-08-02T16:14:56.263Z,25.93
2017-08-02T16:17:23.668Z,25.94
2017-08-02T16:19:51.068Z,26.00
2017-08-02T16:22:18.467Z,26.05
2017-08-02T16:24:45.862Z,26.06
2017-08-02T16:27:13.255Z,25.94
2017-08-02T16:29:40.650Z,25.80
2017-08-02T16:32:08.031Z,25.75
2017-08-02T16:34:35.634Z,25.71
2017-08-02T16:37:03.033Z,25.69
2017-08-02T16:39:30.426Z,25.67
2017-08-02T16:41:57.826Z,25.68
2017-08-02T16:44:25.219Z,25.72
2017-08-02T16:46:53.307Z,25.69
2017-08-02T16:49:20.922Z,25.78
2017-08-02T16:51:48.323Z,25.91
2017-08-02T16:54:15.731Z,25.99
2017-08-02T16:56:43.120Z,26.09
2017-08-02T16:59:10.735Z,26.08
2017-08-02T17:01:38.127Z,26.04
2017-08-02T17:04:05.517Z,26.04
2017-08-02T17:06:32.902Z,26.02
2017-08-02T17:09:00.514Z,26.04
2017-08-02T17:11:27.893Z,26.12
2017-08-02T17:16:29.114Z,26.11
2017-08-02T17:18:56.539Z,25.99
2017-08-02T17:21:23.982Z,26.06
2017-08-02T17:23:51.367Z,26.18
2017-08-02T17:26:18.769Z,26.36
2017-08-02T17:28:46.150Z,26.30
2017-08-02T17:31:13.578Z,26.33
2017-08-02T17:33:40.950Z,26.34
2017-08-02T17:36:08.345Z,26.36
2017-08-02T17:38:35.739Z,26.48
2017-08-02T17:41:03.137Z,26.33
2017-08-02T17:43:30.532Z,26.32
2017-08-02T17:45:57.930Z,26.43
2017-08-02T17:48:25.350Z,26.58
2017-08-02T17:50:52.741Z,26.63
2017-08-02T17:53:20.127Z,26.72
2017-08-02T17:55:47.542Z,26.77
2017-08-02T17:58:14.923Z,26.80
2017-08-02T18:00:42.311Z,26.83
2017-08-02T18:03:09.920Z,26.86
2017-08-02T18:05:37.310Z,26.82
2017-08-02T18:08:04.710Z,26.72
2017-08-02T18:10:32.108Z,26.79
2017-08-02T18:12:59.505Z,26.87
2017-08-02T18:15:26.891Z,26.95
2017-08-02T18:17:54.297Z,27.00
2017-08-02T18:20:21.859Z,27.02
2017-08-02T18:22:49.297Z,27.07
2017-08-02T18:25:16.687Z,27.10
2017-08-02T18:27:44.775Z,26.94
2017-08-02T18:30:12.159Z,27.00
2017-08-02T18:32:39.558Z,27.01
2017-08-02T18:35:06.955Z,27.05
2017-08-02T18:37:34.350Z,27.03
2017-08-02T18:40:01.750Z,27.04
2017-08-02T18:42:30.147Z,27.03
2017-08-02T18:44:57.538Z,27.00
2017-08-02T18:47:25.203Z,26.88
2017-08-02T18:49:52.586Z,26.83
2017-08-02T18:52:19.996Z,26.86
2017-08-02T18:54:47.384Z,26.53
2017-08-02T18:57:14.773Z,26.52
2017-08-02T18:59:42.177Z,26.55
2017-08-02T19:02:09.597Z,26.43
2017-08-02T19:04:36.987Z,26.50
2017-08-02T19:07:04.375Z,26.55
2017-08-02T19:09:31.769Z,26.59
2017-08-02T19:11:59.148Z,26.56
2017-08-02T19:14:26.561Z,26.49
2017-08-02T19:16:54.151Z,26.48
2017-08-02T19:19:21.763Z,26.48
2017-08-02T19:21:49.150Z,26.48
2017-08-02T19:24:16.598Z,26.47
2017-08-02T19:26:44.194Z,26.38
2017-08-02T19:29:11.614Z,26.36
2017-08-02T19:31:39.017Z,26.32
2017-08-02T19:34:06.402Z,26.16
2017-08-02T19:36:34.004Z,26.13
2017-08-02T19:39:01.411Z,26.13
2017-08-02T19:41:28.805Z,26.10
2017-08-02T19:43:56.197Z,26.08
2017-08-02T19:46:23.586Z,26.16
2017-08-02T19:48:51.003Z,26.13
2017-08-02T19:51:18.394Z,25.86
2017-08-02T19:53:45.790Z,25.84
2017-08-02T19:56:13.182Z,25.80
2017-08-02T19:58:40.580Z,25.79
2017-08-02T20:01:07.960Z,25.74
2017-08-02T20:03:35.351Z,25.79
2017-08-02T20:06:02.738Z,25.74
2017-08-02T20:08:30.355Z,25.66
2017-08-02T20:10:57.759Z,25.55
2017-08-02T20:13:25.163Z,25.46
2017-08-02T20:15:52.563Z,25.39
2017-08-02T20:18:19.966Z,25.29
2017-08-02T20:20:47.354Z,25.36
2017-08-02T20:23:14.781Z,25.28
2017-08-02T20:25:42.159Z,25.27
2017-08-02T20:28:09.547Z,25.06
2017-08-02T20:30:36.939Z,25.05
2017-08-02T20:33:04.332Z,25.08
2017-08-02T20:35:31.842Z,25.08
2017-08-02T20:38:00.119Z,24.92
2017-08-02T20:40:27.723Z,24.91
2017-08-02T20:42:55.106Z,24.96
2017-08-02T20:45:22.519Z,24.95
2017-08-02T20:47:50.136Z,24.97
2017-08-02T20:50:17.527Z,24.83
2017-08-02T20:52:44.923Z,24.80
2017-08-02T20:55:12.303Z,24.77
2017-08-02T20:57:39.700Z,24.73
2017-08-02T21:00:07.094Z,24.61
2017-08-02T21:02:34.491Z,24.25
2017-08-02T21:05:01.878Z,24.19
2017-08-02T21:07:29.271Z,24.17
2017-08-02T21:09:56.875Z,24.03
2017-08-02T21:12:24.276Z,23.78
2017-08-02T21:14:51.679Z,23.53
2017-08-02T21:17:19.082Z,23.55
2017-08-02T21:19:46.696Z,23.69
2017-08-02T21:22:14.091Z,23.61
2017-08-02T21:24:41.516Z,23.60
2017-08-02T21:27:08.891Z,23.77
2017-08-02T21:29:36.284Z,23.85
2017-08-02T21:32:03.688Z,23.99
2017-08-02T21:34:31.087Z,23.90
2017-08-02T21:36:58.484Z,23.71
2017-08-02T21:39:25.872Z,23.62
2017-08-02T21:41:53.270Z,23.73
2017-08-02T21:44:20.658Z,23.71
2017-08-02T21:46:48.052Z,23.62
2017-08-02T21:49:15.434Z,23.71
2017-08-02T21:51:43.046Z,23.85
2017-08-02T21:54:10.652Z,23.88
2017-08-02T21:56:38.261Z,23.96
2017-08-02T21:59:05.648Z,23.97
2017-08-02T22:01:33.087Z,24.04
2017-08-02T22:04:00.477Z,24.09
2017-08-02T22:06:28.091Z,24.11
2017-08-02T22:08:55.478Z,24.01
2017-08-02T22:11:22.862Z,23.99
2017-08-02T22:13:50.259Z,23.88
2017-08-02T22:16:17.651Z,23.90
2017-08-02T22:18:45.047Z,23.94
2017-08-02T22:21:12.435Z,23.99
2017-08-02T22:23:39.825Z,23.93
2017-08-02T22:26:07.236Z,23.89
2017-08-02T22:28:34.625Z,24.02
2017-08-02T22:31:02.021Z,24.02
2017-08-02T22:33:29.420Z,24.05
2017-08-02T22:35:56.813Z,23.83
2017-08-02T22:38:24.198Z,23.80
2017-08-02T22:40:51.586Z,23.72
2017-08-02T22:43:18.976Z,23.73
2017-08-02T22:45:46.358Z,23.71
2017-08-02T22:48:13.764Z,23.83
2017-08-02T22:50:41.147Z,23.81
2017-08-02T22:53:08.538Z,23.76
2017-08-02T22:55:35.928Z,23.74
2017-08-02T22:58:03.311Z,23.77
2017-08-02T23:00:30.700Z,23.63
2017-08-02T23:02:58.101Z,23.59
2017-08-02T23:05:25.480Z,23.54
2017-08-02T23:07:52.893Z,23.39
2017-08-02T23:10:20.259Z,23.16
2017-08-02T23:12:47.658Z,23.18
2017-08-02T23:15:15.043Z,22.92
2017-08-02T23:17:42.436Z,22.85
2017-08-02T23:20:09.827Z,22.83
2017-08-02T23:22:37.223Z,22.83
2017-08-02T23:25:04.618Z,22.89
2017-08-02T23:27:32.018Z,22.75
2017-08-02T23:29:59.410Z,22.64
2017-08-02T23:32:26.799Z,22.50
2017-08-02T23:34:54.189Z,22.53
2017-08-02T23:37:21.606Z,22.47
2017-08-02T23:39:48.993Z,22.38
2017-08-02T23:42:16.401Z,22.29
2017-08-02T23:44:43.782Z,22.14
2017-08-02T23:47:11.179Z,22.15
2017-08-02T23:49:38.586Z,22.23
2017-08-02T23:52:05.963Z,22.00
2017-08-02T23:54:33.360Z,21.99
2017-08-02T23:57:00.763Z,21.90
2017-08-02T23:59:28.139Z,21.99
